sensor_id;sensor_type;location;lat;lon;timestamp;P1;durP1;ratioP1;P2;durP2;ratioP2
60243;SDS011;46106;51.468;5.814;2023-02-10T00:01:11;76.97;;;31.05;;
60243;SDS011;46106;51.468;5.814;2023-02-10T00:03:37;71.45;;;31.92;;
60243;SDS011;46106;51.468;5.814;2023-02-10T00:06:04;66.05;;;29.90;;
60243;SDS011;46106;51.468;5.814;2023-02-10T00:08:31;64.63;;;31.65;;
60243;SDS011;46106;51.468;5.814;2023-02-10T00:10:57;68.07;;;31.33;;
60243;SDS011;46106;51.468;5.814;2023-02-10T00:13:31;61.67;;;30.58;;
60243;SDS011;46106;51.468;5.814;2023-02-10T00:15:57;69.10;;;31.67;;
60243;SDS011;46106;51.468;5.814;2023-02-10T00:18:24;72.78;;;30.65;;
60243;SDS011;46106;51.468;5.814;2023-02-10T00:20:50;64.43;;;30.80;;
60243;SDS011;46106;51.468;5.814;2023-02-10T00:23:16;68.40;;;30.63;;
60243;SDS011;46106;51.468;5.814;2023-02-10T00:25:41;65.90;;;31.55;;
60243;SDS011;46106;51.468;5.814;2023-02-10T00:28:06;67.22;;;31.42;;
60243;SDS011;46106;51.468;5.814;2023-02-10T00:30:32;86.03;;;31.88;;
60243;SDS011;46106;51.468;5.814;2023-02-10T00:32:58;64.38;;;32.08;;
60243;SDS011;46106;51.468;5.814;2023-02-10T00:35:23;72.50;;;32.42;;
60243;SDS011;46106;51.468;5.814;2023-02-10T00:37:49;75.65;;;35.13;;
60243;SDS011;46106;51.468;5.814;2023-02-10T00:40:14;72.63;;;34.05;;
60243;SDS011;46106;51.468;5.814;2023-02-10T00:42:41;72.70;;;33.22;;
60243;SDS011;46106;51.468;5.814;2023-02-10T00:45:06;76.45;;;34.20;;
60243;SDS011;46106;51.468;5.814;2023-02-10T00:47:32;80.22;;;32.00;;
60243;SDS011;46106;51.468;5.814;2023-02-10T00:49:58;75.50;;;32.15;;
60243;SDS011;46106;51.468;5.814;2023-02-10T00:52:23;74.28;;;34.35;;
60243;SDS011;46106;51.468;5.814;2023-02-10T00:54:49;79.65;;;33.78;;
60243;SDS011;46106;51.468;5.814;2023-02-10T00:57:14;66.03;;;31.95;;
60243;SDS011;46106;51.468;5.814;2023-02-10T00:59:40;69.18;;;33.63;;
60243;SDS011;46106;51.468;5.814;2023-02-10T01:02:05;70.68;;;32.00;;
60243;SDS011;46106;51.468;5.814;2023-02-10T01:04:31;72.25;;;33.55;;
60243;SDS011;46106;51.468;5.814;2023-02-10T01:06:57;68.85;;;32.88;;
60243;SDS011;46106;51.468;5.814;2023-02-10T01:09:23;73.97;;;34.13;;
60243;SDS011;46106;51.468;5.814;2023-02-10T01:11:48;72.65;;;34.28;;
60243;SDS011;46106;51.468;5.814;2023-02-10T01:14:14;80.00;;;35.83;;
60243;SDS011;46106;51.468;5.814;2023-02-10T01:16:40;78.00;;;34.00;;
60243;SDS011;46106;51.468;5.814;2023-02-10T01:19:05;78.13;;;32.83;;
60243;SDS011;46106;51.468;5.814;2023-02-10T01:21:31;76.13;;;34.30;;
60243;SDS011;46106;51.468;5.814;2023-02-10T01:24:00;73.65;;;34.60;;
60243;SDS011;46106;51.468;5.814;2023-02-10T01:26:25;77.88;;;32.60;;
60243;SDS011;46106;51.468;5.814;2023-02-10T01:28:51;75.57;;;32.63;;
60243;SDS011;46106;51.468;5.814;2023-02-10T01:31:18;73.78;;;34.53;;
60243;SDS011;46106;51.468;5.814;2023-02-10T01:33:44;79.95;;;34.35;;
60243;SDS011;46106;51.468;5.814;2023-02-10T01:36:12;68.32;;;32.88;;
60243;SDS011;46106;51.468;5.814;2023-02-10T01:38:39;78.72;;;35.03;;
60243;SDS011;46106;51.468;5.814;2023-02-10T01:41:05;77.60;;;33.60;;
60243;SDS011;46106;51.468;5.814;2023-02-10T01:43:32;81.63;;;36.45;;
60243;SDS011;46106;51.468;5.814;2023-02-10T01:45:58;75.00;;;34.10;;
60243;SDS011;46106;51.468;5.814;2023-02-10T01:48:23;70.97;;;33.47;;
60243;SDS011;46106;51.468;5.814;2023-02-10T01:50:51;74.45;;;34.05;;
60243;SDS011;46106;51.468;5.814;2023-02-10T01:53:22;71.63;;;33.95;;
60243;SDS011;46106;51.468;5.814;2023-02-10T01:55:50;77.38;;;35.45;;
60243;SDS011;46106;51.468;5.814;2023-02-10T01:58:20;71.07;;;32.75;;
60243;SDS011;46106;51.468;5.814;2023-02-10T02:00:48;82.22;;;36.20;;
60243;SDS011;46106;51.468;5.814;2023-02-10T02:03:14;79.47;;;34.95;;
60243;SDS011;46106;51.468;5.814;2023-02-10T02:05:40;93.18;;;36.15;;
60243;SDS011;46106;51.468;5.814;2023-02-10T02:08:15;75.22;;;35.83;;
60243;SDS011;46106;51.468;5.814;2023-02-10T02:25:20;76.10;;;34.90;;
60243;SDS011;46106;51.468;5.814;2023-02-10T02:33:32;85.22;;;35.33;;
60243;SDS011;46106;51.468;5.814;2023-02-10T02:39:03;85.55;;;35.50;;
60243;SDS011;46106;51.468;5.814;2023-02-10T02:41:31;80.63;;;34.67;;
60243;SDS011;46106;51.468;5.814;2023-02-10T02:43:58;96.70;;;37.95;;
60243;SDS011;46106;51.468;5.814;2023-02-10T02:46:48;93.93;;;38.03;;
60243;SDS011;46106;51.468;5.814;2023-02-10T02:49:29;93.73;;;36.67;;
60243;SDS011;46106;51.468;5.814;2023-02-10T02:52:00;84.78;;;35.20;;
60243;SDS011;46106;51.468;5.814;2023-02-10T02:57:25;88.35;;;35.55;;
60243;SDS011;46106;51.468;5.814;2023-02-10T02:59:58;91.82;;;36.08;;
60243;SDS011;46106;51.468;5.814;2023-02-10T03:02:37;89.53;;;37.22;;
60243;SDS011;46106;51.468;5.814;2023-02-10T03:05:06;90.82;;;38.97;;
60243;SDS011;46106;51.468;5.814;2023-02-10T03:07:34;89.75;;;38.60;;
60243;SDS011;46106;51.468;5.814;2023-02-10T03:09:59;86.60;;;38.20;;
60243;SDS011;46106;51.468;5.814;2023-02-10T03:12:25;81.93;;;36.35;;
60243;SDS011;46106;51.468;5.814;2023-02-10T03:14:50;91.35;;;38.38;;
60243;SDS011;46106;51.468;5.814;2023-02-10T03:17:19;91.38;;;35.80;;
60243;SDS011;46106;51.468;5.814;2023-02-10T03:19:45;93.82;;;37.70;;
60243;SDS011;46106;51.468;5.814;2023-02-10T03:22:10;91.72;;;37.47;;
60243;SDS011;46106;51.468;5.814;2023-02-10T03:24:37;101.53;;;38.22;;
60243;SDS011;46106;51.468;5.814;2023-02-10T03:27:02;94.57;;;38.20;;
60243;SDS011;46106;51.468;5.814;2023-02-10T03:29:30;95.28;;;39.17;;
60243;SDS011;46106;51.468;5.814;2023-02-10T03:31:56;92.15;;;37.88;;
60243;SDS011;46106;51.468;5.814;2023-02-10T03:34:22;94.63;;;38.78;;
60243;SDS011;46106;51.468;5.814;2023-02-10T03:36:48;99.13;;;37.88;;
60243;SDS011;46106;51.468;5.814;2023-02-10T03:39:14;97.65;;;38.30;;
60243;SDS011;46106;51.468;5.814;2023-02-10T03:41:42;90.38;;;39.80;;
60243;SDS011;46106;51.468;5.814;2023-02-10T03:44:10;97.28;;;40.45;;
60243;SDS011;46106;51.468;5.814;2023-02-10T03:46:36;109.80;;;40.70;;
60243;SDS011;46106;51.468;5.814;2023-02-10T03:49:03;96.72;;;41.42;;
60243;SDS011;46106;51.468;5.814;2023-02-10T03:51:29;99.63;;;38.47;;
60243;SDS011;46106;51.468;5.814;2023-02-10T03:53:54;91.20;;;37.97;;
60243;SDS011;46106;51.468;5.814;2023-02-10T03:56:20;97.38;;;37.85;;
60243;SDS011;46106;51.468;5.814;2023-02-10T03:58:48;93.95;;;39.15;;
60243;SDS011;46106;51.468;5.814;2023-02-10T04:01:15;96.47;;;39.60;;
60243;SDS011;46106;51.468;5.814;2023-02-10T04:03:42;105.45;;;39.47;;
60243;SDS011;46106;51.468;5.814;2023-02-10T04:06:08;93.13;;;38.03;;
60243;SDS011;46106;51.468;5.814;2023-02-10T04:08:34;92.50;;;37.13;;
60243;SDS011;46106;51.468;5.814;2023-02-10T04:11:00;100.00;;;40.10;;
60243;SDS011;46106;51.468;5.814;2023-02-10T04:13:26;100.57;;;35.38;;
60243;SDS011;46106;51.468;5.814;2023-02-10T04:16:02;94.07;;;37.97;;
60243;SDS011;46106;51.468;5.814;2023-02-10T04:18:33;101.03;;;39.47;;
60243;SDS011;46106;51.468;5.814;2023-02-10T04:21:00;100.15;;;39.20;;
60243;SDS011;46106;51.468;5.814;2023-02-10T04:23:27;98.45;;;37.95;;
60243;SDS011;46106;51.468;5.814;2023-02-10T04:25:52;94.25;;;38.58;;
60243;SDS011;46106;51.468;5.814;2023-02-10T04:28:18;93.90;;;39.70;;
60243;SDS011;46106;51.468;5.814;2023-02-10T04:30:44;110.45;;;40.28;;
60243;SDS011;46106;51.468;5.814;2023-02-10T04:33:10;104.93;;;37.38;;
60243;SDS011;46106;51.468;5.814;2023-02-10T04:35:35;119.32;;;42.33;;
60243;SDS011;46106;51.468;5.814;2023-02-10T04:38:01;107.38;;;40.75;;
60243;SDS011;46106;51.468;5.814;2023-02-10T04:40:28;110.72;;;42.47;;
60243;SDS011;46106;51.468;5.814;2023-02-10T04:42:55;119.05;;;43.70;;
60243;SDS011;46106;51.468;5.814;2023-02-10T04:45:23;105.50;;;40.75;;
60243;SDS011;46106;51.468;5.814;2023-02-10T04:47:51;125.60;;;45.25;;
60243;SDS011;46106;51.468;5.814;2023-02-10T04:50:17;114.82;;;43.80;;
60243;SDS011;46106;51.468;5.814;2023-02-10T04:52:42;110.47;;;39.97;;
60243;SDS011;46106;51.468;5.814;2023-02-10T04:55:08;112.25;;;42.95;;
60243;SDS011;46106;51.468;5.814;2023-02-10T04:57:33;122.75;;;44.65;;
60243;SDS011;46106;51.468;5.814;2023-02-10T04:59:59;116.05;;;43.80;;
60243;SDS011;46106;51.468;5.814;2023-02-10T05:02:24;117.20;;;44.15;;
60243;SDS011;46106;51.468;5.814;2023-02-10T05:04:50;115.53;;;42.65;;
60243;SDS011;46106;51.468;5.814;2023-02-10T05:07:15;111.53;;;43.00;;
60243;SDS011;46106;51.468;5.814;2023-02-10T05:09:41;120.95;;;44.85;;
60243;SDS011;46106;51.468;5.814;2023-02-10T05:12:06;117.60;;;44.88;;
60243;SDS011;46106;51.468;5.814;2023-02-10T05:14:32;122.40;;;44.50;;
60243;SDS011;46106;51.468;5.814;2023-02-10T05:16:58;126.50;;;46.45;;
60243;SDS011;46106;51.468;5.814;2023-02-10T05:19:23;128.30;;;46.22;;
60243;SDS011;46106;51.468;5.814;2023-02-10T05:21:48;122.80;;;46.33;;
60243;SDS011;46106;51.468;5.814;2023-02-10T05:24:14;101.97;;;36.13;;
60243;SDS011;46106;51.468;5.814;2023-02-10T05:26:40;150.50;;;47.55;;
60243;SDS011;46106;51.468;5.814;2023-02-10T05:29:05;137.82;;;47.28;;
60243;SDS011;46106;51.468;5.814;2023-02-10T05:31:31;148.57;;;46.30;;
60243;SDS011;46106;51.468;5.814;2023-02-10T05:33:56;136.95;;;45.88;;
60243;SDS011;46106;51.468;5.814;2023-02-10T05:36:22;138.02;;;46.83;;
60243;SDS011;46106;51.468;5.814;2023-02-10T05:38:47;134.52;;;46.40;;
60243;SDS011;46106;51.468;5.814;2023-02-10T05:41:31;154.15;;;42.55;;
60243;SDS011;46106;51.468;5.814;2023-02-10T05:43:57;164.95;;;47.42;;
60243;SDS011;46106;51.468;5.814;2023-02-10T05:46:23;222.10;;;42.47;;
60243;SDS011;46106;51.468;5.814;2023-02-10T05:48:48;194.23;;;42.72;;
60243;SDS011;46106;51.468;5.814;2023-02-10T05:51:13;169.10;;;42.47;;
60243;SDS011;46106;51.468;5.814;2023-02-10T05:53:39;223.32;;;44.17;;
60243;SDS011;46106;51.468;5.814;2023-02-10T05:56:04;190.45;;;44.92;;
60243;SDS011;46106;51.468;5.814;2023-02-10T05:58:30;250.57;;;44.97;;
60243;SDS011;46106;51.468;5.814;2023-02-10T06:00:57;335.58;;;45.78;;
60243;SDS011;46106;51.468;5.814;2023-02-10T06:03:23;252.90;;;45.88;;
60243;SDS011;46106;51.468;5.814;2023-02-10T06:05:49;194.27;;;46.05;;
60243;SDS011;46106;51.468;5.814;2023-02-10T06:08:14;314.80;;;46.65;;
60243;SDS011;46106;51.468;5.814;2023-02-10T06:10:40;306.65;;;44.33;;
60243;SDS011;46106;51.468;5.814;2023-02-10T06:13:05;271.38;;;45.75;;
60243;SDS011;46106;51.468;5.814;2023-02-10T06:15:31;299.52;;;47.70;;
60243;SDS011;46106;51.468;5.814;2023-02-10T06:17:56;338.27;;;50.83;;
60243;SDS011;46106;51.468;5.814;2023-02-10T06:20:21;276.83;;;47.95;;
60243;SDS011;46106;51.468;5.814;2023-02-10T06:22:47;305.17;;;48.38;;
60243;SDS011;46106;51.468;5.814;2023-02-10T06:25:14;373.67;;;50.00;;
60243;SDS011;46106;51.468;5.814;2023-02-10T06:27:39;346.42;;;51.67;;
60243;SDS011;46106;51.468;5.814;2023-02-10T06:30:05;304.00;;;47.78;;
60243;SDS011;46106;51.468;5.814;2023-02-10T06:32:31;363.25;;;47.10;;
60243;SDS011;46106;51.468;5.814;2023-02-10T06:34:57;318.45;;;45.97;;
60243;SDS011;46106;51.468;5.814;2023-02-10T06:37:22;282.45;;;47.22;;
60243;SDS011;46106;51.468;5.814;2023-02-10T06:39:49;309.30;;;44.40;;
60243;SDS011;46106;51.468;5.814;2023-02-10T06:42:15;333.67;;;49.65;;
60243;SDS011;46106;51.468;5.814;2023-02-10T06:44:41;364.08;;;48.97;;
60243;SDS011;46106;51.468;5.814;2023-02-10T06:47:06;324.30;;;50.38;;
60243;SDS011;46106;51.468;5.814;2023-02-10T06:49:32;354.35;;;52.30;;
60243;SDS011;46106;51.468;5.814;2023-02-10T06:51:57;386.98;;;49.88;;
60243;SDS011;46106;51.468;5.814;2023-02-10T06:54:23;302.73;;;50.67;;
60243;SDS011;46106;51.468;5.814;2023-02-10T06:56:49;337.20;;;49.15;;
60243;SDS011;46106;51.468;5.814;2023-02-10T06:59:14;413.92;;;53.45;;
60243;SDS011;46106;51.468;5.814;2023-02-10T07:01:40;307.65;;;44.08;;
60243;SDS011;46106;51.468;5.814;2023-02-10T07:04:06;385.38;;;53.40;;
60243;SDS011;46106;51.468;5.814;2023-02-10T07:06:31;298.27;;;50.35;;
60243;SDS011;46106;51.468;5.814;2023-02-10T07:08:57;261.38;;;45.10;;
60243;SDS011;46106;51.468;5.814;2023-02-10T07:11:22;410.23;;;53.42;;
60243;SDS011;46106;51.468;5.814;2023-02-10T07:13:48;397.30;;;52.55;;
60243;SDS011;46106;51.468;5.814;2023-02-10T07:16:13;357.83;;;52.72;;
60243;SDS011;46106;51.468;5.814;2023-02-10T07:18:40;254.05;;;41.90;;
60243;SDS011;46106;51.468;5.814;2023-02-10T07:21:06;270.08;;;46.55;;
60243;SDS011;46106;51.468;5.814;2023-02-10T07:23:35;266.92;;;49.90;;
60243;SDS011;46106;51.468;5.814;2023-02-10T07:26:01;312.13;;;46.60;;
60243;SDS011;46106;51.468;5.814;2023-02-10T07:28:26;336.98;;;48.15;;
60243;SDS011;46106;51.468;5.814;2023-02-10T07:30:52;368.55;;;49.75;;
60243;SDS011;46106;51.468;5.814;2023-02-10T07:33:20;318.52;;;48.85;;
60243;SDS011;46106;51.468;5.814;2023-02-10T07:35:46;310.58;;;49.80;;
60243;SDS011;46106;51.468;5.814;2023-02-10T07:38:12;259.67;;;46.03;;
60243;SDS011;46106;51.468;5.814;2023-02-10T07:40:37;349.85;;;46.47;;
60243;SDS011;46106;51.468;5.814;2023-02-10T07:43:03;315.80;;;49.30;;
60243;SDS011;46106;51.468;5.814;2023-02-10T07:45:28;302.45;;;47.83;;
60243;SDS011;46106;51.468;5.814;2023-02-10T07:47:56;354.17;;;47.78;;
60243;SDS011;46106;51.468;5.814;2023-02-10T07:50:23;355.85;;;49.03;;
60243;SDS011;46106;51.468;5.814;2023-02-10T07:52:49;253.35;;;47.78;;
60243;SDS011;46106;51.468;5.814;2023-02-10T07:55:15;328.30;;;46.45;;
60243;SDS011;46106;51.468;5.814;2023-02-10T07:57:40;353.40;;;47.65;;
60243;SDS011;46106;51.468;5.814;2023-02-10T08:00:09;266.63;;;44.38;;
60243;SDS011;46106;51.468;5.814;2023-02-10T08:02:37;278.80;;;45.35;;
60243;SDS011;46106;51.468;5.814;2023-02-10T08:05:02;284.92;;;46.75;;
60243;SDS011;46106;51.468;5.814;2023-02-10T08:07:28;369.25;;;50.15;;
60243;SDS011;46106;51.468;5.814;2023-02-10T08:09:53;342.60;;;48.28;;
60243;SDS011;46106;51.468;5.814;2023-02-10T08:12:19;309.60;;;46.53;;
60243;SDS011;46106;51.468;5.814;2023-02-10T08:14:45;311.35;;;48.95;;
60243;SDS011;46106;51.468;5.814;2023-02-10T08:17:10;298.38;;;47.00;;
60243;SDS011;46106;51.468;5.814;2023-02-10T08:19:36;300.65;;;50.03;;
60243;SDS011;46106;51.468;5.814;2023-02-10T08:22:04;312.50;;;50.28;;
60243;SDS011;46106;51.468;5.814;2023-02-10T08:24:30;227.50;;;42.90;;
60243;SDS011;46106;51.468;5.814;2023-02-10T08:26:56;238.07;;;44.88;;
60243;SDS011;46106;51.468;5.814;2023-02-10T08:29:21;232.95;;;45.63;;
60243;SDS011;46106;51.468;5.814;2023-02-10T08:31:51;214.40;;;43.85;;
60243;SDS011;46106;51.468;5.814;2023-02-10T08:34:18;227.40;;;42.65;;
60243;SDS011;46106;51.468;5.814;2023-02-10T08:36:45;251.65;;;47.00;;
60243;SDS011;46106;51.468;5.814;2023-02-10T08:39:12;228.13;;;45.90;;
60243;SDS011;46106;51.468;5.814;2023-02-10T08:41:41;228.85;;;48.90;;
60243;SDS011;46106;51.468;5.814;2023-02-10T08:44:07;219.65;;;46.05;;
60243;SDS011;46106;51.468;5.814;2023-02-10T08:46:34;210.35;;;42.35;;
60243;SDS011;46106;51.468;5.814;2023-02-10T08:49:00;217.63;;;45.70;;
60243;SDS011;46106;51.468;5.814;2023-02-10T08:51:26;204.88;;;43.55;;
60243;SDS011;46106;51.468;5.814;2023-02-10T08:53:52;222.10;;;49.20;;
60243;SDS011;46106;51.468;5.814;2023-02-10T08:56:18;197.95;;;46.70;;
60243;SDS011;46106;51.468;5.814;2023-02-10T08:58:45;215.90;;;47.95;;
60243;SDS011;46106;51.468;5.814;2023-02-10T09:01:12;188.65;;;46.65;;
60243;SDS011;46106;51.468;5.814;2023-02-10T09:03:39;198.15;;;47.13;;
60243;SDS011;46106;51.468;5.814;2023-02-10T09:06:11;192.02;;;44.92;;
60243;SDS011;46106;51.468;5.814;2023-02-10T09:08:41;181.77;;;45.08;;
60243;SDS011;46106;51.468;5.814;2023-02-10T09:11:08;189.35;;;45.65;;
60243;SDS011;46106;51.468;5.814;2023-02-10T09:13:35;146.27;;;41.75;;
60243;SDS011;46106;51.468;5.814;2023-02-10T09:16:00;131.70;;;38.58;;
60243;SDS011;46106;51.468;5.814;2023-02-10T09:18:26;150.50;;;39.53;;
60243;SDS011;46106;51.468;5.814;2023-02-10T09:20:51;154.63;;;40.63;;
60243;SDS011;46106;51.468;5.814;2023-02-10T09:23:17;148.43;;;38.88;;
60243;SDS011;46106;51.468;5.814;2023-02-10T09:25:42;134.68;;;38.30;;
60243;SDS011;46106;51.468;5.814;2023-02-10T09:28:08;142.07;;;39.55;;
60243;SDS011;46106;51.468;5.814;2023-02-10T09:30:34;157.77;;;41.95;;
60243;SDS011;46106;51.468;5.814;2023-02-10T09:32:59;136.23;;;40.38;;
60243;SDS011;46106;51.468;5.814;2023-02-10T09:35:25;139.88;;;43.28;;
60243;SDS011;46106;51.468;5.814;2023-02-10T09:37:52;115.80;;;38.72;;
60243;SDS011;46106;51.468;5.814;2023-02-10T09:40:23;132.25;;;41.38;;
60243;SDS011;46106;51.468;5.814;2023-02-10T09:45:52;125.10;;;40.70;;
60243;SDS011;46106;51.468;5.814;2023-02-10T09:48:40;142.00;;;41.40;;
60243;SDS011;46106;51.468;5.814;2023-02-10T09:53:52;125.18;;;41.05;;
60243;SDS011;46106;51.468;5.814;2023-02-10T09:56:19;130.48;;;41.75;;
60243;SDS011;46106;51.468;5.814;2023-02-10T09:58:48;122.95;;;40.50;;
60243;SDS011;46106;51.468;5.814;2023-02-10T10:01:19;120.72;;;39.85;;
60243;SDS011;46106;51.468;5.814;2023-02-10T10:06:30;120.22;;;39.83;;
60243;SDS011;46106;51.468;5.814;2023-02-10T10:11:53;108.90;;;40.25;;
60243;SDS011;46106;51.468;5.814;2023-02-10T10:14:26;123.57;;;41.88;;
60243;SDS011;46106;51.468;5.814;2023-02-10T10:17:00;99.47;;;38.20;;
60243;SDS011;46106;51.468;5.814;2023-02-10T10:22:56;108.18;;;39.70;;
60243;SDS011;46106;51.468;5.814;2023-02-10T10:28:24;104.45;;;37.70;;
60243;SDS011;46106;51.468;5.814;2023-02-10T10:31:06;107.28;;;38.65;;
60243;SDS011;46106;51.468;5.814;2023-02-10T10:36:33;105.13;;;38.97;;
60243;SDS011;46106;51.468;5.814;2023-02-10T10:39:23;107.28;;;41.35;;
60243;SDS011;46106;51.468;5.814;2023-02-10T10:41:49;98.47;;;37.70;;
60243;SDS011;46106;51.468;5.814;2023-02-10T10:44:16;103.85;;;37.42;;
60243;SDS011;46106;51.468;5.814;2023-02-10T10:46:47;93.78;;;36.83;;
60243;SDS011;46106;51.468;5.814;2023-02-10T10:49:17;89.90;;;37.58;;
60243;SDS011;46106;51.468;5.814;2023-02-10T10:51:43;92.13;;;36.28;;
60243;SDS011;46106;51.468;5.814;2023-02-10T10:54:14;92.05;;;36.53;;
60243;SDS011;46106;51.468;5.814;2023-02-10T11:01:42;107.20;;;36.30;;
60243;SDS011;46106;51.468;5.814;2023-02-10T11:04:16;82.72;;;30.67;;
60243;SDS011;46106;51.468;5.814;2023-02-10T11:06:48;95.85;;;33.78;;
60243;SDS011;46106;51.468;5.814;2023-02-10T11:09:23;86.93;;;35.30;;
60243;SDS011;46106;51.468;5.814;2023-02-10T11:11:53;87.20;;;34.58;;
60243;SDS011;46106;51.468;5.814;2023-02-10T11:14:27;80.38;;;31.85;;
60243;SDS011;46106;51.468;5.814;2023-02-10T11:16:56;87.28;;;32.65;;
60243;SDS011;46106;51.468;5.814;2023-02-10T11:19:29;76.72;;;30.98;;
60243;SDS011;46106;51.468;5.814;2023-02-10T11:21:56;76.57;;;31.42;;
60243;SDS011;46106;51.468;5.814;2023-02-10T11:24:26;71.25;;;29.67;;
60243;SDS011;46106;51.468;5.814;2023-02-10T11:27:04;86.57;;;32.30;;
60243;SDS011;46106;51.468;5.814;2023-02-10T11:29:40;80.18;;;31.58;;
60243;SDS011;46106;51.468;5.814;2023-02-10T11:32:20;84.00;;;33.92;;
60243;SDS011;46106;51.468;5.814;2023-02-10T11:34:48;77.28;;;29.75;;
60243;SDS011;46106;51.468;5.814;2023-02-10T11:37:21;75.60;;;28.30;;
60243;SDS011;46106;51.468;5.814;2023-02-10T11:40:04;70.28;;;27.45;;
60243;SDS011;46106;51.468;5.814;2023-02-10T11:42:45;69.20;;;28.65;;
60243;SDS011;46106;51.468;5.814;2023-02-10T11:45:17;72.13;;;28.98;;
60243;SDS011;46106;51.468;5.814;2023-02-10T11:47:45;69.80;;;29.75;;
60243;SDS011;46106;51.468;5.814;2023-02-10T11:50:21;77.65;;;29.98;;
60243;SDS011;46106;51.468;5.814;2023-02-10T11:52:52;77.65;;;29.38;;
60243;SDS011;46106;51.468;5.814;2023-02-10T11:55:17;69.57;;;28.60;;
60243;SDS011;46106;51.468;5.814;2023-02-10T11:57:52;71.93;;;27.63;;
60243;SDS011;46106;51.468;5.814;2023-02-10T12:01:14;63.08;;;29.15;;
60243;SDS011;46106;51.468;5.814;2023-02-10T12:03:59;64.63;;;25.85;;
60243;SDS011;46106;51.468;5.814;2023-02-10T12:11:52;61.00;;;27.35;;
60243;SDS011;46106;51.468;5.814;2023-02-10T12:17:28;68.07;;;28.45;;
60243;SDS011;46106;51.468;5.814;2023-02-10T12:34:18;55.88;;;26.00;;
60243;SDS011;46106;51.468;5.814;2023-02-10T12:39:59;71.93;;;30.90;;
60243;SDS011;46106;51.468;5.814;2023-02-10T12:45:32;57.88;;;26.60;;
60243;SDS011;46106;51.468;5.814;2023-02-10T12:48:21;62.83;;;27.33;;
60243;SDS011;46106;51.468;5.814;2023-02-10T12:51:02;64.47;;;27.42;;
60243;SDS011;46106;51.468;5.814;2023-02-10T12:53:42;42.60;;;20.00;;
60243;SDS011;46106;51.468;5.814;2023-02-10T12:56:19;50.30;;;23.10;;
60243;SDS011;46106;51.468;5.814;2023-02-10T13:01:27;49.35;;;20.10;;
60243;SDS011;46106;51.468;5.814;2023-02-10T13:07:02;38.20;;;18.92;;
60243;SDS011;46106;51.468;5.814;2023-02-10T13:09:45;41.00;;;18.95;;
60243;SDS011;46106;51.468;5.814;2023-02-10T13:12:22;46.97;;;20.52;;
60243;SDS011;46106;51.468;5.814;2023-02-10T13:14:54;38.38;;;20.30;;
60243;SDS011;46106;51.468;5.814;2023-02-10T13:17:45;38.75;;;20.40;;
60243;SDS011;46106;51.468;5.814;2023-02-10T13:25:59;39.40;;;19.08;;
60243;SDS011;46106;51.468;5.814;2023-02-10T13:28:42;37.95;;;19.90;;
60243;SDS011;46106;51.468;5.814;2023-02-10T13:40:00;42.55;;;19.45;;
60243;SDS011;46106;51.468;5.814;2023-02-10T13:42:30;37.00;;;18.65;;
60243;SDS011;46106;51.468;5.814;2023-02-10T13:47:37;39.25;;;18.02;;
60243;SDS011;46106;51.468;5.814;2023-02-10T13:55:24;39.88;;;17.73;;
60243;SDS011;46106;51.468;5.814;2023-02-10T13:57:55;39.03;;;17.05;;
60243;SDS011;46106;51.468;5.814;2023-02-10T14:00:48;40.88;;;18.52;;
60243;SDS011;46106;51.468;5.814;2023-02-10T14:08:32;33.42;;;18.17;;
60243;SDS011;46106;51.468;5.814;2023-02-10T14:13:42;33.05;;;15.27;;
60243;SDS011;46106;51.468;5.814;2023-02-10T14:18:42;33.10;;;14.27;;
60243;SDS011;46106;51.468;5.814;2023-02-10T14:21:09;32.03;;;14.30;;
60243;SDS011;46106;51.468;5.814;2023-02-10T14:23:37;36.33;;;14.65;;
60243;SDS011;46106;51.468;5.814;2023-02-10T14:26:26;30.27;;;15.25;;
60243;SDS011;46106;51.468;5.814;2023-02-10T14:28:58;31.25;;;15.50;;
60243;SDS011;46106;51.468;5.814;2023-02-10T14:31:35;29.08;;;14.90;;
60243;SDS011;46106;51.468;5.814;2023-02-10T14:34:05;39.67;;;16.70;;
60243;SDS011;46106;51.468;5.814;2023-02-10T14:36:56;35.85;;;16.20;;
60243;SDS011;46106;51.468;5.814;2023-02-10T14:39:25;33.17;;;16.48;;
60243;SDS011;46106;51.468;5.814;2023-02-10T14:41:53;39.80;;;17.33;;
60243;SDS011;46106;51.468;5.814;2023-02-10T14:47:19;35.67;;;17.42;;
60243;SDS011;46106;51.468;5.814;2023-02-10T14:49:57;37.45;;;17.88;;
60243;SDS011;46106;51.468;5.814;2023-02-10T14:52:33;36.35;;;18.10;;
60243;SDS011;46106;51.468;5.814;2023-02-10T14:55:02;41.88;;;18.58;;
60243;SDS011;46106;51.468;5.814;2023-02-10T14:57:47;37.20;;;18.20;;
60243;SDS011;46106;51.468;5.814;2023-02-10T15:00:13;30.38;;;15.80;;
60243;SDS011;46106;51.468;5.814;2023-02-10T15:02:39;27.25;;;14.30;;
60243;SDS011;46106;51.468;5.814;2023-02-10T15:05:07;31.38;;;15.40;;
60243;SDS011;46106;51.468;5.814;2023-02-10T15:07:36;34.13;;;15.40;;
60243;SDS011;46106;51.468;5.814;2023-02-10T15:12:54;31.17;;;16.08;;
60243;SDS011;46106;51.468;5.814;2023-02-10T15:17:55;36.28;;;17.08;;
60243;SDS011;46106;51.468;5.814;2023-02-10T15:20:27;36.28;;;18.20;;
60243;SDS011;46106;51.468;5.814;2023-02-10T15:27:51;36.20;;;16.23;;
60243;SDS011;46106;51.468;5.814;2023-02-10T15:30:17;35.22;;;17.95;;
60243;SDS011;46106;51.468;5.814;2023-02-10T15:32:51;40.45;;;19.02;;
60243;SDS011;46106;51.468;5.814;2023-02-10T15:35:19;43.72;;;20.35;;
60243;SDS011;46106;51.468;5.814;2023-02-10T15:37:49;42.53;;;18.58;;
60243;SDS011;46106;51.468;5.814;2023-02-10T15:40:23;50.53;;;22.10;;
60243;SDS011;46106;51.468;5.814;2023-02-10T15:42:57;53.17;;;22.63;;
60243;SDS011;46106;51.468;5.814;2023-02-10T15:45:27;50.45;;;22.27;;
60243;SDS011;46106;51.468;5.814;2023-02-10T15:47:59;48.38;;;22.45;;
60243;SDS011;46106;51.468;5.814;2023-02-10T15:50:27;52.13;;;23.52;;
60243;SDS011;46106;51.468;5.814;2023-02-10T15:52:55;59.75;;;24.58;;
60243;SDS011;46106;51.468;5.814;2023-02-10T15:55:24;50.38;;;24.10;;
60243;SDS011;46106;51.468;5.814;2023-02-10T15:57:51;61.13;;;26.50;;
60243;SDS011;46106;51.468;5.814;2023-02-10T16:00:18;63.28;;;26.77;;
60243;SDS011;46106;51.468;5.814;2023-02-10T16:02:47;57.50;;;25.65;;
60243;SDS011;46106;51.468;5.814;2023-02-10T16:05:12;55.45;;;25.38;;
60243;SDS011;46106;51.468;5.814;2023-02-10T16:07:38;46.67;;;21.42;;
60243;SDS011;46106;51.468;5.814;2023-02-10T16:10:04;53.03;;;22.60;;
60243;SDS011;46106;51.468;5.814;2023-02-10T16:12:30;51.28;;;22.52;;
60243;SDS011;46106;51.468;5.814;2023-02-10T16:14:55;50.42;;;22.33;;
60243;SDS011;46106;51.468;5.814;2023-02-10T16:17:26;56.67;;;24.30;;
60243;SDS011;46106;51.468;5.814;2023-02-10T16:19:56;53.13;;;24.92;;
60243;SDS011;46106;51.468;5.814;2023-02-10T16:22:21;52.63;;;23.77;;
60243;SDS011;46106;51.468;5.814;2023-02-10T16:24:47;61.28;;;25.10;;
60243;SDS011;46106;51.468;5.814;2023-02-10T16:27:13;54.95;;;25.00;;
60243;SDS011;46106;51.468;5.814;2023-02-10T16:29:39;57.55;;;23.40;;
60243;SDS011;46106;51.468;5.814;2023-02-10T16:32:04;50.63;;;20.63;;
60243;SDS011;46106;51.468;5.814;2023-02-10T16:34:30;58.90;;;22.63;;
60243;SDS011;46106;51.468;5.814;2023-02-10T16:36:56;51.88;;;23.10;;